sensor_id;sensor_type;location;lat;lon;timestamp;P1;durP1;ratioP1;P2;durP2;ratioP2
49460;SDS011;35355;49.198;-0.368;2023-02-10T00:00:43;29.67;;;13.55;;
49460;SDS011;35355;49.198;-0.368;2023-02-10T00:03:09;34.55;;;14.52;;
49460;SDS011;35355;49.198;-0.368;2023-02-10T00:05:34;31.60;;;14.38;;
49460;SDS011;35355;49.198;-0.368;2023-02-10T00:07:59;30.00;;;13.85;;
49460;SDS011;35355;49.198;-0.368;2023-02-10T00:10:25;28.52;;;13.75;;
49460;SDS011;35355;49.198;-0.368;2023-02-10T00:12:50;29.55;;;12.75;;
49460;SDS011;35355;49.198;-0.368;2023-02-10T00:15:16;33.72;;;13.30;;
49460;SDS011;35355;49.198;-0.368;2023-02-10T00:17:41;27.02;;;13.43;;
49460;SDS011;35355;49.198;-0.368;2023-02-10T00:20:07;30.50;;;13.93;;
49460;SDS011;35355;49.198;-0.368;2023-02-10T00:22:33;28.85;;;13.45;;
49460;SDS011;35355;49.198;-0.368;2023-02-10T00:24:59;27.40;;;14.00;;
49460;SDS011;35355;49.198;-0.368;2023-02-10T00:27:24;29.33;;;12.68;;
49460;SDS011;35355;49.198;-0.368;2023-02-10T00:29:50;27.00;;;12.75;;
49460;SDS011;35355;49.198;-0.368;2023-02-10T00:32:17;30.55;;;13.65;;
49460;SDS011;35355;49.198;-0.368;2023-02-10T00:34:45;32.38;;;14.55;;
49460;SDS011;35355;49.198;-0.368;2023-02-10T00:37:11;28.45;;;13.27;;
49460;SDS011;35355;49.198;-0.368;2023-02-10T00:39:36;26.80;;;12.25;;
49460;SDS011;35355;49.198;-0.368;2023-02-10T00:42:01;28.83;;;11.20;;
49460;SDS011;35355;49.198;-0.368;2023-02-10T00:44:27;29.63;;;12.23;;
49460;SDS011;35355;49.198;-0.368;2023-02-10T00:46:52;24.70;;;10.98;;
49460;SDS011;35355;49.198;-0.368;2023-02-10T00:49:18;23.70;;;10.73;;
49460;SDS011;35355;49.198;-0.368;2023-02-10T00:51:43;24.75;;;10.45;;
49460;SDS011;35355;49.198;-0.368;2023-02-10T00:54:11;19.00;;;9.02;;
49460;SDS011;35355;49.198;-0.368;2023-02-10T00:56:37;30.50;;;11.05;;
49460;SDS011;35355;49.198;-0.368;2023-02-10T00:59:03;25.45;;;9.68;;
49460;SDS011;35355;49.198;-0.368;2023-02-10T01:01:28;28.88;;;10.18;;
49460;SDS011;35355;49.198;-0.368;2023-02-10T01:03:53;20.02;;;9.45;;
49460;SDS011;35355;49.198;-0.368;2023-02-10T01:06:19;20.17;;;10.32;;
49460;SDS011;35355;49.198;-0.368;2023-02-10T01:08:44;23.33;;;10.05;;
49460;SDS011;35355;49.198;-0.368;2023-02-10T01:11:10;21.75;;;9.48;;
49460;SDS011;35355;49.198;-0.368;2023-02-10T01:13:37;25.23;;;10.95;;
49460;SDS011;35355;49.198;-0.368;2023-02-10T01:16:04;22.42;;;10.27;;
49460;SDS011;35355;49.198;-0.368;2023-02-10T01:18:30;21.42;;;9.57;;
49460;SDS011;35355;49.198;-0.368;2023-02-10T01:20:56;22.17;;;9.52;;
49460;SDS011;35355;49.198;-0.368;2023-02-10T01:23:21;20.10;;;9.65;;
49460;SDS011;35355;49.198;-0.368;2023-02-10T01:25:46;24.27;;;10.40;;
49460;SDS011;35355;49.198;-0.368;2023-02-10T01:28:12;18.42;;;8.68;;
49460;SDS011;35355;49.198;-0.368;2023-02-10T01:30:37;23.88;;;9.95;;
49460;SDS011;35355;49.198;-0.368;2023-02-10T01:33:03;24.67;;;8.88;;
49460;SDS011;35355;49.198;-0.368;2023-02-10T01:35:29;24.63;;;8.38;;
49460;SDS011;35355;49.198;-0.368;2023-02-10T01:37:54;21.70;;;10.15;;
49460;SDS011;35355;49.198;-0.368;2023-02-10T01:40:21;28.67;;;10.55;;
49460;SDS011;35355;49.198;-0.368;2023-02-10T01:42:48;20.17;;;9.25;;
49460;SDS011;35355;49.198;-0.368;2023-02-10T01:48:06;24.92;;;9.10;;
49460;SDS011;35355;49.198;-0.368;2023-02-10T01:50:52;21.75;;;9.52;;
49460;SDS011;35355;49.198;-0.368;2023-02-10T01:53:25;20.65;;;8.98;;
49460;SDS011;35355;49.198;-0.368;2023-02-10T01:55:51;22.92;;;9.30;;
49460;SDS011;35355;49.198;-0.368;2023-02-10T01:58:20;23.00;;;9.38;;
49460;SDS011;35355;49.198;-0.368;2023-02-10T02:00:48;26.23;;;8.63;;
49460;SDS011;35355;49.198;-0.368;2023-02-10T02:03:14;23.77;;;9.90;;
49460;SDS011;35355;49.198;-0.368;2023-02-10T02:05:40;20.75;;;9.48;;
49460;SDS011;35355;49.198;-0.368;2023-02-10T02:13:51;23.90;;;9.18;;
49460;SDS011;35355;49.198;-0.368;2023-02-10T02:25:39;20.67;;;8.60;;
49460;SDS011;35355;49.198;-0.368;2023-02-10T02:28:11;25.95;;;9.52;;
49460;SDS011;35355;49.198;-0.368;2023-02-10T02:36:59;17.60;;;8.57;;
49460;SDS011;35355;49.198;-0.368;2023-02-10T02:39:28;19.90;;;8.77;;
49460;SDS011;35355;49.198;-0.368;2023-02-10T02:42:27;16.52;;;8.25;;
49460;SDS011;35355;49.198;-0.368;2023-02-10T02:44:47;19.85;;;8.77;;
49460;SDS011;35355;49.198;-0.368;2023-02-10T02:59:01;20.27;;;8.77;;
49460;SDS011;35355;49.198;-0.368;2023-02-10T03:01:33;24.10;;;9.05;;
49460;SDS011;35355;49.198;-0.368;2023-02-10T03:04:02;22.08;;;7.60;;
49460;SDS011;35355;49.198;-0.368;2023-02-10T03:06:30;20.50;;;8.70;;
49460;SDS011;35355;49.198;-0.368;2023-02-10T03:08:55;20.52;;;8.85;;
49460;SDS011;35355;49.198;-0.368;2023-02-10T03:11:20;19.38;;;9.45;;
49460;SDS011;35355;49.198;-0.368;2023-02-10T03:13:46;20.33;;;8.23;;
49460;SDS011;35355;49.198;-0.368;2023-02-10T03:16:11;25.70;;;9.00;;
49460;SDS011;35355;49.198;-0.368;2023-02-10T03:18:37;19.80;;;8.27;;
49460;SDS011;35355;49.198;-0.368;2023-02-10T03:21:02;22.52;;;8.45;;
49460;SDS011;35355;49.198;-0.368;2023-02-10T03:23:28;16.27;;;7.97;;
49460;SDS011;35355;49.198;-0.368;2023-02-10T03:25:53;22.70;;;8.52;;
49460;SDS011;35355;49.198;-0.368;2023-02-10T03:28:19;22.20;;;8.30;;
49460;SDS011;35355;49.198;-0.368;2023-02-10T03:30:44;14.75;;;7.72;;
49460;SDS011;35355;49.198;-0.368;2023-02-10T03:33:14;23.60;;;8.73;;
49460;SDS011;35355;49.198;-0.368;2023-02-10T03:35:40;18.65;;;7.95;;
49460;SDS011;35355;49.198;-0.368;2023-02-10T03:38:06;14.70;;;7.40;;
49460;SDS011;35355;49.198;-0.368;2023-02-10T03:40:32;24.30;;;8.80;;
49460;SDS011;35355;49.198;-0.368;2023-02-10T03:42:57;16.88;;;8.30;;
49460;SDS011;35355;49.198;-0.368;2023-02-10T03:45:23;19.92;;;8.88;;
49460;SDS011;35355;49.198;-0.368;2023-02-10T03:47:48;17.58;;;9.05;;
49460;SDS011;35355;49.198;-0.368;2023-02-10T03:50:13;17.27;;;8.05;;
49460;SDS011;35355;49.198;-0.368;2023-02-10T03:52:39;17.90;;;8.45;;
49460;SDS011;35355;49.198;-0.368;2023-02-10T03:55:04;18.83;;;8.55;;
49460;SDS011;35355;49.198;-0.368;2023-02-10T03:57:30;23.25;;;8.68;;
49460;SDS011;35355;49.198;-0.368;2023-02-10T03:59:55;19.92;;;8.98;;
49460;SDS011;35355;49.198;-0.368;2023-02-10T04:02:21;23.75;;;9.13;;
49460;SDS011;35355;49.198;-0.368;2023-02-10T04:04:46;22.17;;;9.18;;
49460;SDS011;35355;49.198;-0.368;2023-02-10T04:07:11;25.67;;;9.75;;
49460;SDS011;35355;49.198;-0.368;2023-02-10T04:09:37;26.13;;;11.75;;
49460;SDS011;35355;49.198;-0.368;2023-02-10T04:12:02;22.00;;;9.70;;
49460;SDS011;35355;49.198;-0.368;2023-02-10T04:14:28;23.42;;;9.88;;
49460;SDS011;35355;49.198;-0.368;2023-02-10T04:16:53;31.88;;;11.77;;
49460;SDS011;35355;49.198;-0.368;2023-02-10T04:19:19;21.92;;;11.23;;
49460;SDS011;35355;49.198;-0.368;2023-02-10T04:21:44;27.30;;;10.75;;
49460;SDS011;35355;49.198;-0.368;2023-02-10T04:24:09;26.10;;;11.43;;
49460;SDS011;35355;49.198;-0.368;2023-02-10T04:26:35;26.88;;;12.02;;
49460;SDS011;35355;49.198;-0.368;2023-02-10T04:29:00;31.02;;;14.30;;
49460;SDS011;35355;49.198;-0.368;2023-02-10T04:31:25;26.00;;;12.43;;
49460;SDS011;35355;49.198;-0.368;2023-02-10T04:33:51;31.75;;;13.68;;
49460;SDS011;35355;49.198;-0.368;2023-02-10T04:36:16;27.52;;;13.43;;
49460;SDS011;35355;49.198;-0.368;2023-02-10T04:38:42;28.70;;;14.80;;
49460;SDS011;35355;49.198;-0.368;2023-02-10T04:41:07;28.95;;;13.93;;
49460;SDS011;35355;49.198;-0.368;2023-02-10T04:43:33;32.80;;;14.70;;
49460;SDS011;35355;49.198;-0.368;2023-02-10T04:45:59;45.92;;;15.23;;
49460;SDS011;35355;49.198;-0.368;2023-02-10T04:48:24;32.08;;;14.30;;
49460;SDS011;35355;49.198;-0.368;2023-02-10T04:50:50;31.73;;;14.20;;
49460;SDS011;35355;49.198;-0.368;2023-02-10T04:53:17;32.08;;;15.15;;
49460;SDS011;35355;49.198;-0.368;2023-02-10T04:55:42;29.33;;;13.70;;
49460;SDS011;35355;49.198;-0.368;2023-02-10T04:58:08;30.88;;;13.95;;
49460;SDS011;35355;49.198;-0.368;2023-02-10T05:00:33;30.42;;;13.65;;
49460;SDS011;35355;49.198;-0.368;2023-02-10T05:02:59;26.08;;;12.40;;
49460;SDS011;35355;49.198;-0.368;2023-02-10T05:05:24;27.77;;;13.85;;
49460;SDS011;35355;49.198;-0.368;2023-02-10T05:07:50;33.92;;;13.80;;
49460;SDS011;35355;49.198;-0.368;2023-02-10T05:10:16;31.33;;;13.45;;
49460;SDS011;35355;49.198;-0.368;2023-02-10T05:12:42;25.05;;;12.75;;
49460;SDS011;35355;49.198;-0.368;2023-02-10T05:15:07;26.25;;;13.63;;
49460;SDS011;35355;49.198;-0.368;2023-02-10T05:17:33;31.80;;;13.80;;
49460;SDS011;35355;49.198;-0.368;2023-02-10T05:19:59;28.52;;;11.77;;
49460;SDS011;35355;49.198;-0.368;2023-02-10T05:22:24;19.55;;;11.18;;
49460;SDS011;35355;49.198;-0.368;2023-02-10T05:24:54;25.63;;;11.57;;
49460;SDS011;35355;49.198;-0.368;2023-02-10T05:27:21;23.10;;;10.73;;
49460;SDS011;35355;49.198;-0.368;2023-02-10T05:29:48;20.90;;;11.45;;
49460;SDS011;35355;49.198;-0.368;2023-02-10T05:52:05;18.42;;;10.60;;
49460;SDS011;35355;49.198;-0.368;2023-02-10T05:54:31;22.58;;;11.65;;
49460;SDS011;35355;49.198;-0.368;2023-02-10T05:56:56;22.48;;;12.07;;
49460;SDS011;35355;49.198;-0.368;2023-02-10T05:59:21;24.60;;;12.43;;
49460;SDS011;35355;49.198;-0.368;2023-02-10T06:01:47;27.63;;;12.65;;
49460;SDS011;35355;49.198;-0.368;2023-02-10T06:04:12;27.55;;;13.07;;
49460;SDS011;35355;49.198;-0.368;2023-02-10T06:06:38;26.88;;;13.27;;
49460;SDS011;35355;49.198;-0.368;2023-02-10T06:09:03;24.15;;;12.70;;
49460;SDS011;35355;49.198;-0.368;2023-02-10T06:11:29;28.70;;;13.63;;
49460;SDS011;35355;49.198;-0.368;2023-02-10T06:13:55;25.10;;;12.57;;
49460;SDS011;35355;49.198;-0.368;2023-02-10T06:16:20;27.13;;;12.85;;
49460;SDS011;35355;49.198;-0.368;2023-02-10T06:18:46;28.27;;;12.88;;
49460;SDS011;35355;49.198;-0.368;2023-02-10T06:21:13;26.05;;;12.48;;
49460;SDS011;35355;49.198;-0.368;2023-02-10T06:23:39;24.35;;;12.65;;
49460;SDS011;35355;49.198;-0.368;2023-02-10T06:26:04;26.05;;;13.23;;
49460;SDS011;35355;49.198;-0.368;2023-02-10T06:28:30;23.23;;;13.27;;
49460;SDS011;35355;49.198;-0.368;2023-02-10T06:30:55;28.50;;;13.55;;
49460;SDS011;35355;49.198;-0.368;2023-02-10T06:33:21;23.90;;;12.20;;
49460;SDS011;35355;49.198;-0.368;2023-02-10T06:35:46;27.38;;;13.55;;
49460;SDS011;35355;49.198;-0.368;2023-02-10T06:38:12;24.48;;;12.93;;
49460;SDS011;35355;49.198;-0.368;2023-02-10T06:40:37;23.45;;;13.50;;
49460;SDS011;35355;49.198;-0.368;2023-02-10T06:43:03;24.85;;;12.90;;
49460;SDS011;35355;49.198;-0.368;2023-02-10T06:45:28;28.73;;;13.52;;
49460;SDS011;35355;49.198;-0.368;2023-02-10T06:47:54;27.83;;;12.80;;
49460;SDS011;35355;49.198;-0.368;2023-02-10T06:50:20;25.92;;;13.52;;
49460;SDS011;35355;49.198;-0.368;2023-02-10T06:52:46;25.80;;;13.32;;
49460;SDS011;35355;49.198;-0.368;2023-02-10T06:55:12;27.88;;;13.10;;
49460;SDS011;35355;49.198;-0.368;2023-02-10T06:57:38;22.45;;;12.48;;
49460;SDS011;35355;49.198;-0.368;2023-02-10T07:00:04;24.30;;;12.85;;
49460;SDS011;35355;49.198;-0.368;2023-02-10T07:02:32;25.88;;;13.02;;
49460;SDS011;35355;49.198;-0.368;2023-02-10T07:04:58;25.63;;;13.65;;
49460;SDS011;35355;49.198;-0.368;2023-02-10T07:07:23;25.30;;;13.48;;
49460;SDS011;35355;49.198;-0.368;2023-02-10T07:09:49;27.15;;;13.00;;
49460;SDS011;35355;49.198;-0.368;2023-02-10T07:12:18;26.98;;;13.32;;
49460;SDS011;35355;49.198;-0.368;2023-02-10T07:14:44;23.08;;;12.73;;
49460;SDS011;35355;49.198;-0.368;2023-02-10T07:17:09;24.88;;;12.82;;
49460;SDS011;35355;49.198;-0.368;2023-02-10T07:19:35;30.02;;;13.38;;
49460;SDS011;35355;49.198;-0.368;2023-02-10T07:22:00;26.60;;;13.70;;
49460;SDS011;35355;49.198;-0.368;2023-02-10T07:24:29;27.42;;;13.18;;
49460;SDS011;35355;49.198;-0.368;2023-02-10T07:26:55;32.25;;;14.02;;
49460;SDS011;35355;49.198;-0.368;2023-02-10T07:29:21;27.92;;;13.43;;
49460;SDS011;35355;49.198;-0.368;2023-02-10T07:31:46;25.92;;;13.23;;
49460;SDS011;35355;49.198;-0.368;2023-02-10T07:34:11;29.45;;;14.07;;
49460;SDS011;35355;49.198;-0.368;2023-02-10T07:36:37;25.30;;;13.73;;
49460;SDS011;35355;49.198;-0.368;2023-02-10T07:39:02;24.33;;;12.68;;
49460;SDS011;35355;49.198;-0.368;2023-02-10T07:41:27;24.10;;;12.68;;
49460;SDS011;35355;49.198;-0.368;2023-02-10T07:43:53;29.05;;;12.95;;
49460;SDS011;35355;49.198;-0.368;2023-02-10T07:46:18;24.42;;;14.38;;
49460;SDS011;35355;49.198;-0.368;2023-02-10T07:48:44;28.05;;;13.05;;
49460;SDS011;35355;49.198;-0.368;2023-02-10T07:51:09;23.38;;;12.35;;
49460;SDS011;35355;49.198;-0.368;2023-02-10T07:53:34;27.05;;;13.68;;
49460;SDS011;35355;49.198;-0.368;2023-02-10T07:56:02;26.13;;;13.82;;
49460;SDS011;35355;49.198;-0.368;2023-02-10T07:58:28;26.05;;;14.27;;
49460;SDS011;35355;49.198;-0.368;2023-02-10T08:00:54;21.63;;;12.55;;
49460;SDS011;35355;49.198;-0.368;2023-02-10T08:03:20;25.15;;;12.90;;
49460;SDS011;35355;49.198;-0.368;2023-02-10T08:05:45;25.67;;;12.77;;
49460;SDS011;35355;49.198;-0.368;2023-02-10T08:08:13;25.98;;;13.20;;
49460;SDS011;35355;49.198;-0.368;2023-02-10T08:10:39;24.80;;;14.00;;
49460;SDS011;35355;49.198;-0.368;2023-02-10T08:13:05;29.67;;;14.23;;
49460;SDS011;35355;49.198;-0.368;2023-02-10T08:15:31;30.33;;;14.98;;
49460;SDS011;35355;49.198;-0.368;2023-02-10T08:17:58;27.02;;;13.50;;
49460;SDS011;35355;49.198;-0.368;2023-02-10T08:20:24;31.17;;;13.85;;
49460;SDS011;35355;49.198;-0.368;2023-02-10T08:22:54;26.30;;;13.23;;
49460;SDS011;35355;49.198;-0.368;2023-02-10T08:25:20;27.60;;;14.48;;
49460;SDS011;35355;49.198;-0.368;2023-02-10T08:27:45;29.52;;;14.00;;
49460;SDS011;35355;49.198;-0.368;2023-02-10T08:30:11;27.48;;;13.43;;
49460;SDS011;35355;49.198;-0.368;2023-02-10T08:32:36;26.98;;;12.07;;
49460;SDS011;35355;49.198;-0.368;2023-02-10T08:35:02;24.45;;;13.05;;
49460;SDS011;35355;49.198;-0.368;2023-02-10T08:37:28;26.48;;;13.15;;
49460;SDS011;35355;49.198;-0.368;2023-02-10T08:39:53;28.65;;;12.82;;
49460;SDS011;35355;49.198;-0.368;2023-02-10T08:42:19;32.83;;;13.93;;
49460;SDS011;35355;49.198;-0.368;2023-02-10T08:44:44;22.98;;;11.75;;
49460;SDS011;35355;49.198;-0.368;2023-02-10T08:47:09;23.50;;;12.82;;
49460;SDS011;35355;49.198;-0.368;2023-02-10T08:49:38;26.17;;;12.50;;
49460;SDS011;35355;49.198;-0.368;2023-02-10T08:52:03;25.88;;;12.18;;
49460;SDS011;35355;49.198;-0.368;2023-02-10T08:54:29;31.23;;;13.45;;
49460;SDS011;35355;49.198;-0.368;2023-02-10T08:56:54;29.23;;;14.25;;
49460;SDS011;35355;49.198;-0.368;2023-02-10T08:59:20;33.90;;;13.10;;
49460;SDS011;35355;49.198;-0.368;2023-02-10T09:01:46;27.50;;;11.90;;
49460;SDS011;35355;49.198;-0.368;2023-02-10T09:04:11;31.52;;;13.43;;
49460;SDS011;35355;49.198;-0.368;2023-02-10T09:06:37;25.48;;;12.77;;
49460;SDS011;35355;49.198;-0.368;2023-02-10T09:09:16;28.17;;;12.30;;
49460;SDS011;35355;49.198;-0.368;2023-02-10T09:11:44;26.63;;;12.90;;
49460;SDS011;35355;49.198;-0.368;2023-02-10T09:14:10;23.98;;;11.82;;
49460;SDS011;35355;49.198;-0.368;2023-02-10T09:16:36;19.67;;;11.13;;
49460;SDS011;35355;49.198;-0.368;2023-02-10T09:19:01;22.58;;;10.52;;
49460;SDS011;35355;49.198;-0.368;2023-02-10T09:21:27;20.00;;;10.43;;
49460;SDS011;35355;49.198;-0.368;2023-02-10T09:23:52;25.38;;;11.15;;
49460;SDS011;35355;49.198;-0.368;2023-02-10T09:26:18;23.30;;;10.02;;
49460;SDS011;35355;49.198;-0.368;2023-02-10T09:28:43;22.42;;;10.30;;
49460;SDS011;35355;49.198;-0.368;2023-02-10T09:31:10;22.35;;;11.02;;
49460;SDS011;35355;49.198;-0.368;2023-02-10T09:33:37;20.75;;;10.73;;
49460;SDS011;35355;49.198;-0.368;2023-02-10T09:36:03;18.40;;;9.48;;
49460;SDS011;35355;49.198;-0.368;2023-02-10T09:38:29;18.25;;;9.90;;
49460;SDS011;35355;49.198;-0.368;2023-02-10T09:46:24;18.60;;;9.90;;
49460;SDS011;35355;49.198;-0.368;2023-02-10T09:52:00;14.25;;;8.88;;
49460;SDS011;35355;49.198;-0.368;2023-02-10T09:54:34;15.18;;;8.60;;
49460;SDS011;35355;49.198;-0.368;2023-02-10T09:57:03;16.85;;;9.73;;
49460;SDS011;35355;49.198;-0.368;2023-02-10T09:59:34;16.17;;;8.63;;
49460;SDS011;35355;49.198;-0.368;2023-02-10T10:02:08;19.33;;;8.73;;
49460;SDS011;35355;49.198;-0.368;2023-02-10T10:04:40;15.05;;;8.52;;
49460;SDS011;35355;49.198;-0.368;2023-02-10T10:07:23;18.25;;;9.02;;
49460;SDS011;35355;49.198;-0.368;2023-02-10T10:10:02;15.75;;;9.23;;
49460;SDS011;35355;49.198;-0.368;2023-02-10T10:12:34;18.30;;;9.48;;
49460;SDS011;35355;49.198;-0.368;2023-02-10T10:15:00;23.08;;;9.82;;
49460;SDS011;35355;49.198;-0.368;2023-02-10T10:20:28;19.45;;;9.15;;
49460;SDS011;35355;49.198;-0.368;2023-02-10T10:25:47;18.83;;;8.80;;
49460;SDS011;35355;49.198;-0.368;2023-02-10T10:28:28;17.83;;;10.30;;
49460;SDS011;35355;49.198;-0.368;2023-02-10T10:31:18;17.92;;;8.27;;
49460;SDS011;35355;49.198;-0.368;2023-02-10T10:36:34;17.10;;;7.68;;
49460;SDS011;35355;49.198;-0.368;2023-02-10T10:39:16;20.88;;;8.13;;
49460;SDS011;35355;49.198;-0.368;2023-02-10T10:41:58;13.73;;;7.85;;
49460;SDS011;35355;49.198;-0.368;2023-02-10T10:44:27;19.95;;;7.97;;
49460;SDS011;35355;49.198;-0.368;2023-02-10T10:47:05;13.05;;;7.18;;
49460;SDS011;35355;49.198;-0.368;2023-02-10T10:49:36;15.93;;;8.10;;
49460;SDS011;35355;49.198;-0.368;2023-02-10T10:52:04;16.13;;;8.40;;
49460;SDS011;35355;49.198;-0.368;2023-02-10T10:54:54;18.75;;;8.38;;
49460;SDS011;35355;49.198;-0.368;2023-02-10T10:57:21;15.68;;;5.93;;
49460;SDS011;35355;49.198;-0.368;2023-02-10T10:59:52;14.23;;;7.05;;
49460;SDS011;35355;49.198;-0.368;2023-02-10T11:02:26;16.60;;;8.07;;
49460;SDS011;35355;49.198;-0.368;2023-02-10T11:05:04;16.25;;;6.72;;
49460;SDS011;35355;49.198;-0.368;2023-02-10T11:07:35;10.43;;;5.88;;
49460;SDS011;35355;49.198;-0.368;2023-02-10T11:10:01;12.20;;;5.72;;
49460;SDS011;35355;49.198;-0.368;2023-02-10T11:12:34;8.70;;;4.60;;
49460;SDS011;35355;49.198;-0.368;2023-02-10T11:15:05;10.10;;;4.93;;
49460;SDS011;35355;49.198;-0.368;2023-02-10T11:17:48;10.90;;;5.47;;
49460;SDS011;35355;49.198;-0.368;2023-02-10T11:22:40;10.52;;;4.30;;
49460;SDS011;35355;49.198;-0.368;2023-02-10T11:28:03;10.70;;;5.38;;
49460;SDS011;35355;49.198;-0.368;2023-02-10T11:30:31;8.60;;;4.90;;
49460;SDS011;35355;49.198;-0.368;2023-02-10T11:33:02;12.48;;;4.70;;
49460;SDS011;35355;49.198;-0.368;2023-02-10T11:35:30;10.32;;;4.53;;
49460;SDS011;35355;49.198;-0.368;2023-02-10T11:38:17;9.90;;;5.53;;
49460;SDS011;35355;49.198;-0.368;2023-02-10T11:43:14;9.27;;;5.55;;
49460;SDS011;35355;49.198;-0.368;2023-02-10T11:45:50;10.18;;;5.45;;
49460;SDS011;35355;49.198;-0.368;2023-02-10T11:48:18;8.88;;;5.68;;
49460;SDS011;35355;49.198;-0.368;2023-02-10T11:50:45;8.10;;;5.30;;
49460;SDS011;35355;49.198;-0.368;2023-02-10T11:53:24;7.60;;;5.15;;
49460;SDS011;35355;49.198;-0.368;2023-02-10T11:55:53;7.13;;;4.13;;
49460;SDS011;35355;49.198;-0.368;2023-02-10T12:04:52;7.03;;;4.00;;
49460;SDS011;35355;49.198;-0.368;2023-02-10T12:10:48;8.25;;;4.03;;
49460;SDS011;35355;49.198;-0.368;2023-02-10T12:13:00;5.05;;;3.30;;
49460;SDS011;35355;49.198;-0.368;2023-02-10T12:15:46;8.90;;;3.88;;
49460;SDS011;35355;49.198;-0.368;2023-02-10T12:18:35;6.22;;;3.75;;
49460;SDS011;35355;49.198;-0.368;2023-02-10T12:21:21;5.80;;;2.83;;
49460;SDS011;35355;49.198;-0.368;2023-02-10T12:26:44;9.00;;;2.90;;
49460;SDS011;35355;49.198;-0.368;2023-02-10T12:35:29;5.60;;;3.70;;
49460;SDS011;35355;49.198;-0.368;2023-02-10T12:46:33;6.25;;;2.40;;
49460;SDS011;35355;49.198;-0.368;2023-02-10T12:52:02;1.83;;;1.05;;
49460;SDS011;35355;49.198;-0.368;2023-02-10T12:57:10;4.60;;;1.88;;
49460;SDS011;35355;49.198;-0.368;2023-02-10T12:59:44;5.88;;;1.77;;
49460;SDS011;35355;49.198;-0.368;2023-02-10T13:02:17;6.05;;;1.60;;
49460;SDS011;35355;49.198;-0.368;2023-02-10T13:04:49;5.50;;;2.85;;
49460;SDS011;35355;49.198;-0.368;2023-02-10T13:12:39;3.90;;;2.05;;
49460;SDS011;35355;49.198;-0.368;2023-02-10T13:17:47;6.50;;;2.10;;
49460;SDS011;35355;49.198;-0.368;2023-02-10T13:26:17;4.97;;;2.10;;
49460;SDS011;35355;49.198;-0.368;2023-02-10T13:31:25;3.40;;;1.65;;
49460;SDS011;35355;49.198;-0.368;2023-02-10T13:36:44;8.35;;;2.40;;
49460;SDS011;35355;49.198;-0.368;2023-02-10T13:39:19;14.60;;;3.05;;
49460;SDS011;35355;49.198;-0.368;2023-02-10T13:41:47;6.75;;;2.60;;
49460;SDS011;35355;49.198;-0.368;2023-02-10T13:44:26;5.95;;;2.58;;
49460;SDS011;35355;49.198;-0.368;2023-02-10T13:50:46;5.68;;;2.38;;
49460;SDS011;35355;49.198;-0.368;2023-02-10T13:53:25;6.70;;;2.17;;
49460;SDS011;35355;49.198;-0.368;2023-02-10T13:58:30;8.15;;;2.00;;
49460;SDS011;35355;49.198;-0.368;2023-02-10T14:00:58;3.95;;;1.75;;
49460;SDS011;35355;49.198;-0.368;2023-02-10T14:20:59;6.32;;;1.50;;
49460;SDS011;35355;49.198;-0.368;2023-02-10T14:23:27;4.10;;;1.25;;
49460;SDS011;35355;49.198;-0.368;2023-02-10T14:25:59;8.48;;;1.92;;
49460;SDS011;35355;49.198;-0.368;2023-02-10T14:28:29;5.65;;;1.95;;
49460;SDS011;35355;49.198;-0.368;2023-02-10T14:31:00;4.75;;;1.88;;
49460;SDS011;35355;49.198;-0.368;2023-02-10T14:33:33;4.88;;;1.77;;
49460;SDS011;35355;49.198;-0.368;2023-02-10T14:36:01;6.43;;;1.67;;
49460;SDS011;35355;49.198;-0.368;2023-02-10T14:38:30;8.50;;;2.08;;
49460;SDS011;35355;49.198;-0.368;2023-02-10T14:40:59;9.02;;;2.47;;
49460;SDS011;35355;49.198;-0.368;2023-02-10T14:43:29;4.35;;;2.33;;
49460;SDS011;35355;49.198;-0.368;2023-02-10T14:45:57;5.75;;;1.77;;
49460;SDS011;35355;49.198;-0.368;2023-02-10T14:48:23;7.13;;;1.70;;
49460;SDS011;35355;49.198;-0.368;2023-02-10T14:50:58;2.92;;;1.10;;
49460;SDS011;35355;49.198;-0.368;2023-02-10T14:53:30;4.65;;;0.82;;
49460;SDS011;35355;49.198;-0.368;2023-02-10T14:55:56;2.17;;;0.75;;
49460;SDS011;35355;49.198;-0.368;2023-02-10T14:58:23;3.63;;;1.23;;
49460;SDS011;35355;49.198;-0.368;2023-02-10T15:00:58;4.65;;;1.13;;
49460;SDS011;35355;49.198;-0.368;2023-02-10T15:03:33;3.20;;;0.80;;
49460;SDS011;35355;49.198;-0.368;2023-02-10T15:05:58;5.80;;;1.30;;
49460;SDS011;35355;49.198;-0.368;2023-02-10T15:08:42;4.72;;;0.90;;
49460;SDS011;35355;49.198;-0.368;2023-02-10T15:11:13;1.05;;;0.60;;
49460;SDS011;35355;49.198;-0.368;2023-02-10T15:14:02;1.83;;;0.90;;
49460;SDS011;35355;49.198;-0.368;2023-02-10T15:16:28;5.28;;;1.10;;
49460;SDS011;35355;49.198;-0.368;2023-02-10T15:18:54;4.40;;;1.23;;
49460;SDS011;35355;49.198;-0.368;2023-02-10T15:21:33;4.82;;;1.48;;
49460;SDS011;35355;49.198;-0.368;2023-02-10T15:24:00;2.20;;;0.52;;
49460;SDS011;35355;49.198;-0.368;2023-02-10T15:26:26;3.38;;;0.75;;
49460;SDS011;35355;49.198;-0.368;2023-02-10T15:29:02;3.75;;;0.70;;
49460;SDS011;35355;49.198;-0.368;2023-02-10T15:31:34;5.88;;;0.98;;
49460;SDS011;35355;49.198;-0.368;2023-02-10T15:34:01;4.45;;;0.70;;
49460;SDS011;35355;49.198;-0.368;2023-02-10T15:36:34;2.00;;;0.50;;
49460;SDS011;35355;49.198;-0.368;2023-02-10T15:39:22;4.22;;;0.88;;
49460;SDS011;35355;49.198;-0.368;2023-02-10T15:46:43;3.67;;;0.65;;
49460;SDS011;35355;49.198;-0.368;2023-02-10T15:49:15;2.17;;;0.60;;
49460;SDS011;35355;49.198;-0.368;2023-02-10T15:51:47;2.00;;;0.77;;
49460;SDS011;35355;49.198;-0.368;2023-02-10T15:54:16;2.88;;;0.75;;
49460;SDS011;35355;49.198;-0.368;2023-02-10T15:56:56;6.18;;;0.80;;
49460;SDS011;35355;49.198;-0.368;2023-02-10T15:59:23;4.72;;;0.65;;
49460;SDS011;35355;49.198;-0.368;2023-02-10T16:01:53;3.20;;;0.90;;
49460;SDS011;35355;49.198;-0.368;2023-02-10T16:04:22;3.58;;;1.42;;
49460;SDS011;35355;49.198;-0.368;2023-02-10T16:06:48;3.45;;;0.60;;
49460;SDS011;35355;49.198;-0.368;2023-02-10T16:09:13;5.75;;;1.00;;
49460;SDS011;35355;49.198;-0.368;2023-02-10T16:11:38;5.45;;;0.90;;
49460;SDS011;35355;49.198;-0.368;2023-02-10T16:14:04;3.00;;;0.80;;
49460;SDS011;35355;49.198;-0.368;2023-02-10T16:16:29;4.55;;;0.73;;
49460;SDS011;35355;49.198;-0.368;2023-02-10T16:18:55;1.90;;;1.02;;
49460;SDS011;35355;49.198;-0.368;2023-02-10T16:21:20;3.60;;;0.80;;
49460;SDS011;35355;49.198;-0.368;2023-02-10T16:23:46;1.73;;;0.95;;
49460;SDS011;35355;49.198;-0.368;2023-02-10T16:26:18;5.03;;;1.05;;
49460;SDS011;35355;49.198;-0.368;2023-02-10T16:28:47;2.70;;;1.20;;
49460;SDS011;35355;49.198;-0.368;2023-02-10T16:31:13;4.75;;;1.83;;
49460;SDS011;35355;49.198;-0.368;2023-02-10T16:33:38;2.95;;;1.08;;
49460;SDS011;35355;49.198;-0.368;2023-02-10T16:36:06;4.60;;;1.25;;
49460;SDS011;35355;49.198;-0.368;2023-02-10T16:38:32;7.65;;;1.17;;
49460;SDS011;35355;49.198;-0.368;2023-02-10T16:40:59;3.58;;;0.85;;
49460;SDS011;35355;49.198;-0.368;2023-02-10T16:43:24;3.92;;;1.30;;
49460;SDS011;35355;49.198;-0.368;2023-02-10T16:45:50;8.15;;;1.48;;
49460;SDS011;35355;49.198;-0.368;2023-02-10T16:48:15;2.50;;;1.10;;
49460;SDS011;35355;49.198;-0.368;2023-02-10T16:50:41;3.88;;;1.38;;
49460;SDS011;35355;49.198;-0.368;2023-02-10T16:53:07;4.13;;;1.17;;
49460;SDS011;35355;49.198;-0.368;2023-02-10T16:55:35;3.92;;;0.93;;
49460;SDS011;35355;49.198;-0.368;2023-02-10T16:58:02;8.10;;;1.00;;
49460;SDS011;35355;49.198;-0.368;2023-02-10T17:00:28;5.10;;;1.30;;
49460;SDS011;35355;49.198;-0.368;2023-02-10T17:02:54;2.75;;;1.13;;
49460;SDS011;35355;49.198;-0.368;2023-02-10T17:05:20;2.90;;;0.82;;